• Join FlightAware (Why Join?)
  • Login
  • US Flag 
04:47PM EST


 

Airport Tracker/Info


-or-


 

Live Flight TrackerFlight Track Log ✈ THY1056 ✈ 27-Jul-2013 ✈ LDZA / ZAG - LTBA / IST

Flight Track Log - Related Links

Times and Time Zones

All times are in EDT time to prevent confusion due to time zone crossing. See the THY1056 flight status page for this flight to view local times or setup timezone preferences in your user account.

Time Position Orientation Groundspeed Altitude Reporting Facility
EDT Latitude Longitude Course Direction KTS MPH feet Rate Location/Type
02:18PM 45.7580 16.4820 106° East 337 388 11,300  Level FlightAware
02:19PM 45.7350 16.5900 107° East 352 405 13,700 2,760 Climbing FlightAware
02:21PM 45.6970 16.7690 107° East 373 429 17,200 2,760 Climbing FlightAware
02:21PM 45.6770 16.8630 107° East 379 436 19,100 2,280 Climbing FlightAware
02:22PM 45.6550 16.9620 108° East 395 455 20,400 2,160 Climbing FlightAware
02:23PM 45.6290 17.0830 107° East 398 458 22,400 2,220 Climbing FlightAware
02:23PM 45.6060 17.1890 107° East 410 472 23,600 1,860 Climbing FlightAware
02:24PM 45.5830 17.2940 107° East 415 478 24,900 1,740 Climbing FlightAware
02:25PM 45.5580 17.4060 108° East 430 495 26,100 1,620 Climbing FlightAware
02:25PM 45.5350 17.5130 107° East 440 506 27,200 1,620 Climbing FlightAware
02:26PM 45.5080 17.6340 108° East 447 514 28,300 1,620 Climbing FlightAware
02:27PM 45.4750 17.7790 108° East 456 525 29,700 1,560 Climbing FlightAware
02:28PM 45.4500 17.8940 107° East 462 532 30,700 1,500 Climbing FlightAware
02:28PM 45.4210 18.0220 108° East 462 532 31,900 1,620 Climbing FlightAware
02:29PM 45.3910 18.1520 108° East 464 534 33,200 1,380 Climbing FlightAware
02:30PM 45.3600 18.2890 108° East 474 545 34,000 1,320 Climbing FlightAware
02:31PM 45.3330 18.4060 108° East 472 543 35,100 1,260 Climbing FlightAware
02:31PM 45.3000 18.5390 109° East 479 551 35,800 840 Climbing FlightAware
02:32PM 45.2590 18.6510 117° Southeast 484 557 36,300 840 Climbing FlightAware
02:33PM 45.2090 18.7780 119° Southeast 492 566 37,000 480 Climbing FlightAware
02:33PM 45.1650 18.8930 118° Southeast 485 558 37,000  Level FlightAware
02:34PM 45.1280 18.9890 119° Southeast 485 558 37,000  Level FlightAware
02:35PM 45.0840 19.1030 119° Southeast 485 558 37,000  Level FlightAware
02:35PM 45.0350 19.2250 120° Southeast 489 563 37,000  Level FlightAware
02:36PM 44.9890 19.3390 120° Southeast 489 563 37,000  Level FlightAware
02:37PM 44.9400 19.4620 119° Southeast 490 564 37,000  Level FlightAware
02:37PM 44.8940 19.5750 120° Southeast 493 567 37,000  Level FlightAware
02:38PM 44.8440 19.6990 120° Southeast 494 568 37,000 60 Level FlightAware
02:39PM 44.7980 19.8110 120° Southeast 493 567 37,100  Climbing FlightAware
02:40PM 44.7480 19.9340 120° Southeast 493 567 37,000 -120 Descending FlightAware
02:40PM 44.7100 20.0260 120° Southeast 493 567 37,000  Level FlightAware
02:41PM 44.6360 20.2070 120° Southeast 492 566 37,000  Level FlightAware
02:42PM 44.5920 20.3140 120° Southeast 491 565 37,000  Level FlightAware
02:43PM 44.5400 20.4380 120° Southeast 492 566 37,000  Level FlightAware
02:43PM 44.5010 20.5320 120° Southeast 492 566 37,000  Level FlightAware
02:44PM 44.4540 20.6440 120° Southeast 491 565 37,000  Level FlightAware
02:45PM 44.4060 20.7570 121° Southeast 493 567 37,000  Level FlightAware
02:45PM 44.3560 20.8770 120° Southeast 493 567 37,000  Level FlightAware
02:46PM 44.3110 20.9820 121° Southeast 492 566 37,000  Level FlightAware
02:47PM 44.2560 21.1120 121° Southeast 491 565 37,000  Level FlightAware
02:47PM 44.2120 21.2160 121° Southeast 492 566 37,000  Level FlightAware
02:48PM 44.1600 21.3350 121° Southeast 491 565 37,000  Level FlightAware
02:49PM 44.1130 21.4450 121° Southeast 492 566 37,000  Level FlightAware
02:50PM 44.0610 21.5650 121° Southeast 490 564 37,000  Level FlightAware
02:50PM 44.0100 21.6820 121° Southeast 490 564 37,000  Level FlightAware
02:51PM 43.9640 21.7870 121° Southeast 490 564 37,000  Level FlightAware
02:52PM 43.9140 21.9030 121° Southeast 491 565 37,000  Level FlightAware
02:52PM 43.8660 22.0110 122° Southeast 491 565 37,000  Level FlightAware
02:53PM 43.8120 22.1340 121° Southeast 492 566 37,000  Level FlightAware
02:54PM 43.7650 22.2410 121° Southeast 492 566 37,000  Level FlightAware
02:54PM 43.7120 22.3590 122° Southeast 494 568 37,000  Level FlightAware
02:55PM 43.6640 22.4660 122° Southeast 495 570 37,000  Level FlightAware
02:56PM 43.6170 22.5680 122° Southeast 494 568 37,000  Level FlightAware
02:57PM 43.5570 22.6970 123° Southeast 495 570 37,000  Level FlightAware
02:57PM 43.5060 22.8070 123° Southeast 494 568 37,000  Level FlightAware
02:58PM 43.4600 22.9070 122° Southeast 493 567 37,000  Level FlightAware
02:59PM 43.4050 23.0240 123° Southeast 491 565 37,000  Level FlightAware
02:59PM 43.3550 23.1310 123° Southeast 490 564 37,000  Level FlightAware
03:00PM 43.2990 23.2480 123° Southeast 490 564 37,000  Level FlightAware
03:01PM 43.2560 23.3400 123° Southeast 489 563 37,000  Level FlightAware
03:01PM 43.2010 23.4550 123° Southeast 489 563 37,000  Level FlightAware
03:02PM 43.1640 23.5340 123° Southeast 489 563 37,000  Level FlightAware
03:03PM 43.1050 23.6550 124° Southeast 489 563 37,000  Level FlightAware
03:03PM 43.0450 23.7810 123° Southeast 489 563 37,000  Level FlightAware
03:04PM 42.9910 23.8940 123° Southeast 489 563 37,000 60 Level FlightAware
03:05PM 42.9440 23.9910 123° Southeast 488 562 37,100  Climbing FlightAware
03:06PM 42.8860 24.1110 123° Southeast 488 562 37,000 -120 Descending FlightAware
03:06PM 42.8440 24.2010 122° Southeast 487 560 37,000  Level FlightAware
03:07PM 42.8000 24.3110 119° Southeast 489 563 37,000  Level FlightAware
03:07PM 42.7630 24.4050 118° Southeast 490 564 37,000  Level FlightAware
03:08PM 42.7140 24.5290 118° Southeast 490 564 37,000 60 Level FlightAware
03:09PM 42.6800 24.6150 118° Southeast 478 550 37,100  Climbing FlightAware
03:09PM 42.6340 24.7280 119° Southeast 486 559 37,000 -120 Descending FlightAware
03:10PM 42.5910 24.8350 119° Southeast 483 556 37,000  Level FlightAware
03:11PM 42.5500 24.9360 119° Southeast 492 566 37,000  Level FlightAware
03:11PM 42.5100 25.0350 119° Southeast 492 566 37,000  Level FlightAware
03:12PM 42.4600 25.1580 119° Southeast 492 566 37,000  Level FlightAware
03:13PM 42.4170 25.2650 119° Southeast 491 565 37,000  Level FlightAware
03:14PM 42.3680 25.3830 119° Southeast 488 562 37,000  Level FlightAware
03:14PM 42.3260 25.4860 119° Southeast 487 560 37,000  Level FlightAware
03:15PM 42.2710 25.6180 119° Southeast 483 556 37,000  Level FlightAware
03:16PM 42.2340 25.7090 119° Southeast 481 554 37,000  Level FlightAware
03:16PM 42.1920 25.8100 119° Southeast 478 550 37,000  Level FlightAware
03:17PM 42.1490 25.9130 119° Southeast 479 551 37,000 -420 Level FlightAware
03:18PM 42.0660 26.1110 119° Southeast 480 552 36,300 -720 Descending FlightAware
03:19PM 42.0210 26.2170 120° Southeast 485 558 35,600 -1,260 Descending FlightAware
03:20PM 41.9630 26.3560 119° Southeast 491 565 34,300 -1,560 Descending FlightAware
03:20PM 41.9140 26.4700 120° Southeast 479 551 33,200 -1,920 Descending FlightAware
03:21PM 41.8750 26.5600 120° Southeast 478 550 31,900 -2,100 Descending FlightAware
03:22PM 41.7970 26.7140 124° Southeast 457 526 29,900 -1,500 Descending FlightAware
03:24PM 41.7070 26.8890 125° Southeast 435 501 28,200 -1,500 Descending FlightAware
03:24PM 41.6580 26.9820 125° Southeast 429 494 27,000 -1,680 Descending FlightAware
03:25PM 41.6110 27.0730 125° Southeast 423 487 26,000 -1,260 Descending FlightAware
03:25PM 41.5700 27.1530 124° Southeast 401 461 25,300 -840 Descending FlightAware
03:26PM 41.5300 27.2280 125° Southeast 401 461 25,000 -240 Descending FlightAware
03:27PM 41.4810 27.3200 125° Southeast 397 457 25,000  Level FlightAware
03:27PM 41.4380 27.4020 125° Southeast 396 456 25,000 -180 Level FlightAware
03:28PM 41.3900 27.4920 125° Southeast 395 455 24,800 -540 Descending FlightAware
03:29PM 41.3410 27.5820 126° Southeast 395 455 24,200 -900 Descending FlightAware
03:30PM 41.3050 27.6490 126° Southeast 390 449 23,600 -1,080 Descending FlightAware
03:30PM 41.2630 27.7270 126° Southeast 388 447 22,900 -1,080 Descending FlightAware
03:31PM 41.2270 27.7940 126° Southeast 384 442 22,300 -960 Descending FlightAware
03:32PM 41.1750 27.8920 125° Southeast 384 442 21,600 -840 Descending FlightAware
03:32PM 41.1360 27.9630 126° Southeast 376 433 21,100 -1,200 Descending FlightAware
03:33PM 41.0800 28.1060 117° Southeast 337 388 19,400 -1,200 Descending FlightAware
03:34PM 41.0930 28.1580 72° East 295 339 19,100 -720 Descending FlightAware
03:35PM 41.1220 28.2200 58° Northeast 284 327 18,600 -960 Descending FlightAware
03:35PM 41.1540 28.2890 58° Northeast 286 329 17,800 -1,020 Descending FlightAware
03:36PM 41.1790 28.3430 58° Northeast 282 325 17,200 -1,020 Descending FlightAware
03:37PM 41.2070 28.4020 58° Northeast 266 306 16,500 -1,140 Descending FlightAware
03:37PM 41.2150 28.4290 68° East 281 323 16,200 -1,260 Descending FlightAware
03:38PM 41.1950 28.4940 112° Southeast 302 348 15,400 -1,200 Descending FlightAware
03:38PM 41.1490 28.5320 148° Southeast 304 350 14,600 -1,200 Descending FlightAware
03:39PM 41.0990 28.5730 148° Southeast 290 334 13,800 -1,320 Descending FlightAware
03:40PM 41.0560 28.6080 148° Southeast 290 334 12,900 -1,440 Descending FlightAware
03:40PM 41.0240 28.6250 158° South 291 335 12,300 -1,440 Descending FlightAware
03:40PM 40.9970 28.6150 196° South 284 327 11,800 -1,440 Descending FlightAware
03:41PM 40.9880 28.6040 223° Southwest 278 320 11,600 -1,560 Descending FlightAware
03:41PM 40.9570 28.5380 238° Southwest 258 297 10,400 -1,740 Descending FlightAware
03:42PM 40.9420 28.5080 237° Southwest 264 304 9,600 -1,980 Descending FlightAware
03:42PM 40.9110 28.4410 239° Southwest 270 311 8,100 -1,740 Descending FlightAware
03:43PM 40.9020 28.4220 238° Southwest 264 304 7,900 -1,080 Descending FlightAware
03:43PM 40.8890 28.3940 238° Southwest 263 303 7,500 -600 Descending FlightAware
03:44PM 40.8670 28.3450 239° Southwest 263 303 7,300 -960 Descending FlightAware
03:44PM 40.8450 28.3020 236° Southwest 6,500 -1,260 Descending FlightAware
03:45PM 40.7850 28.2890 189° South 233 268 5,600 -900 Descending FlightAware
03:46PM 40.7760 28.3160 114° Southeast 233 268 5,300 -600 Descending FlightAware
03:46PM 40.7710 28.3470 102° East 209 241 5,100 -300 Descending FlightAware
03:47PM 40.7720 28.3930 88° East 188 216 5,000 -120 Descending FlightAware
03:47PM 40.7810 28.4140 60° Northeast 183 211 5,000  Level FlightAware
03:47PM 40.7910 28.4360 59° Northeast 171 197 5,000  Level FlightAware
03:48PM 40.8050 28.4640 57° Northeast 167 192 5,000  Level FlightAware
03:48PM 40.8160 28.4870 58° Northeast 168 193 5,000 -120 Level FlightAware
03:49PM 40.8330 28.5250 59° Northeast 171 197 4,900 -420 Descending FlightAware
03:49PM 40.8460 28.5530 58° Northeast 170 196 4,500 -960 Descending FlightAware
03:50PM 40.8630 28.5900 59° Northeast 169 194 3,800 -960 Descending FlightAware
03:51PM 40.8940 28.6550 58° Northeast 162 186 2,700 -960 Descending FlightAware
03:52PM 40.9010 28.6710 60° Northeast 162 186 2,400 -960 Descending FlightAware
03:52PM 40.9110 28.6920 58° Northeast 162 186 2,100 -840 Descending FlightAware
03:53PM 40.9240 28.7200 58° Northeast 142 163 1,600 -780 Descending FlightAware
03:53PM 40.9310 28.7350 58° Northeast 138 159 1,400 -720 Descending FlightAware
03:53PM 40.9380 28.7500 58° Northeast 111 128 1,100 -720 Descending FlightAware
03:54PM 40.9410 28.7580 64° Northeast 111 128 1,000 -540 Descending FlightAware
03:54PM 40.9500 28.7770 58° Northeast 112 129 700 -300 Descending FlightAware
03:55PM 40.9560 28.7910 60° Northeast 112 129 700  Level FlightAware
03:56PM 40.9760 28.8330 58° Northeast 55 63 -540 Descending FlightAware
03:59PM 40.9769 28.8211 276° West  Level Estimated
04:00PM 40.9760 28.8250 276° West 5 6  Level FlightAware